Hovedside
METAR-TAF:

METAR-TAF

Lufthavner :

Luleå, Sverige

Luleå lufthavn

breddegrad: 65-33N, lengdegrad: 022-08E, høyde over havet: 17 m

Gjeldene værobservasjon

Denne rapporten ble laget for 22 minutter siden, klokken 20:20 UTC
Vind 22 kt fra Nordvest
Temperatur 3°C
Luftfuktighet 52%
Trykk 1004 hPa
Sikt 10 km eller mer
ingen skyer under 1500 m og ingen bygeskyer

METAR: ESPA 262020Z 31022KT CAVOK 03/M06 Q1004

Tid: 22:42 (20:42 UTC)

Varsel

Denne rapporten ble laget for 12 minutter siden, klokken 20:30 UTC
Varsel gyldig fra 26. klokken 21 UTC til 26. klokken 23 UTC
Vind 25 kt fra Vest-nordvest med vindkast opp mot 35 kt
Sikt 10 km eller mer
ingen skyer under 1500 m og ingen bygeskyer
Blir
fra 26. klokken 21 UTC til 26. klokken 23 UTC
Vind 15 kt fra Vest-nordvest med vindkast opp mot 25 kt

TAF: ESPA 262030Z 2621/2623 30025G35KT CAVOK BECMG 2621/2623 30015G25KT

Værobservasjoner og værvarsel for over 4000 flyplasser (METAR- og TAF-rapporter).

Tilgjengelige stasjoner er representert av de røde og gule prikkene på kartet.

Hold musepekeren over prikken for å se navnet på stasjonen.

Klikk så for å se værobservasjoner og -varsler.

For å forandre kartet kan du klikke på den grønne knappen med svart kryss for å zoome inn, på den grønne knappen med strek for å zoome ut, eller på de grønne pilene for å se tilstøtende kart.


METAR-TAF: